createdAt,value
2023-05-13T00:00:49.631Z,8.45
2023-05-13T00:01:50.236Z,8.46
2023-05-13T00:02:49.715Z,8.47
2023-05-13T00:03:49.707Z,8.48
2023-05-13T00:04:49.609Z,8.48
2023-05-13T00:05:49.633Z,8.49
2023-05-13T00:06:49.567Z,8.49
2023-05-13T00:07:49.586Z,8.50
2023-05-13T00:08:49.551Z,8.50
2023-05-13T00:09:49.524Z,8.50
2023-05-13T00:10:49.510Z,8.50
2023-05-13T00:11:49.513Z,8.51
2023-05-13T00:12:49.486Z,8.51
2023-05-13T00:13:49.536Z,8.52
2023-05-13T00:14:49.484Z,8.54
2023-05-13T00:15:49.476Z,8.55
2023-05-13T00:16:49.492Z,8.56
2023-05-13T00:17:49.503Z,8.56
2023-05-13T00:18:49.453Z,8.56
2023-05-13T00:19:49.434Z,8.56
2023-05-13T00:20:49.383Z,8.56
2023-05-13T00:21:49.382Z,8.57
2023-05-13T00:22:49.372Z,8.58
2023-05-13T00:23:49.357Z,8.58
2023-05-13T00:24:49.337Z,8.59
2023-05-13T00:25:49.346Z,8.59
2023-05-13T00:26:49.315Z,8.60
2023-05-13T00:27:49.324Z,8.60
2023-05-13T00:28:49.271Z,8.60
2023-05-13T00:29:49.273Z,8.60
2023-05-13T00:30:49.289Z,8.60
2023-05-13T00:31:49.311Z,8.60
2023-05-13T00:32:49.287Z,8.60
2023-05-13T00:33:49.217Z,8.60
2023-05-13T00:34:49.235Z,8.60
2023-05-13T00:35:49.187Z,8.60
2023-05-13T00:36:49.197Z,8.61
2023-05-13T00:37:49.168Z,8.61
2023-05-13T00:38:49.152Z,8.61
2023-05-13T00:39:49.147Z,8.61
2023-05-13T00:40:49.152Z,8.61
2023-05-13T00:41:49.106Z,8.61
2023-05-13T00:42:49.137Z,8.61
2023-05-13T00:43:49.110Z,8.61
2023-05-13T00:44:49.077Z,8.61
2023-05-13T00:45:49.136Z,8.61
2023-05-13T00:46:49.058Z,8.61
2023-05-13T00:47:49.094Z,8.60
2023-05-13T00:48:49.060Z,8.60
2023-05-13T00:49:49.010Z,8.59
2023-05-13T00:50:49.013Z,8.59
2023-05-13T00:51:48.996Z,8.58
2023-05-13T00:52:48.976Z,8.58
2023-05-13T00:53:48.965Z,8.57
2023-05-13T00:54:48.957Z,8.57
2023-05-13T00:55:48.943Z,8.56
2023-05-13T00:56:48.922Z,8.56
2023-05-13T00:57:48.925Z,8.55
2023-05-13T00:58:48.912Z,8.55
2023-05-13T00:59:48.883Z,8.55
2023-05-13T01:00:48.928Z,8.55
2023-05-13T01:01:48.859Z,8.55
2023-05-13T01:02:48.941Z,8.56
2023-05-13T01:03:48.830Z,8.56
2023-05-13T01:04:48.845Z,8.56
2023-05-13T01:05:48.812Z,8.56
2023-05-13T01:06:48.826Z,8.56
2023-05-13T01:07:48.819Z,8.55
2023-05-13T01:08:48.766Z,8.55
2023-05-13T01:09:48.744Z,8.55
2023-05-13T01:10:48.735Z,8.56
2023-05-13T01:11:48.748Z,8.56
2023-05-13T01:12:48.724Z,8.56
2023-05-13T01:13:48.707Z,8.56
2023-05-13T01:14:48.698Z,8.56
2023-05-13T01:15:48.674Z,8.57
2023-05-13T01:16:48.716Z,8.57
2023-05-13T01:17:48.680Z,8.57
2023-05-13T01:18:48.654Z,8.57
2023-05-13T01:19:48.633Z,8.57
2023-05-13T01:20:48.606Z,8.56
2023-05-13T01:21:48.598Z,8.56
2023-05-13T01:22:48.608Z,8.56
2023-05-13T01:23:48.568Z,8.55
2023-05-13T01:24:48.562Z,8.55
2023-05-13T01:25:48.548Z,8.54
2023-05-13T01:26:48.545Z,8.54
2023-05-13T01:27:48.563Z,8.54
2023-05-13T01:28:48.501Z,8.54
2023-05-13T01:29:48.490Z,8.54
2023-05-13T01:30:48.502Z,8.54
2023-05-13T01:31:48.504Z,8.54
2023-05-13T01:32:48.562Z,8.54
2023-05-13T01:33:48.452Z,8.54
2023-05-13T01:34:48.431Z,8.53
2023-05-13T01:35:48.495Z,8.52
2023-05-13T01:36:48.427Z,8.52
2023-05-13T01:37:48.430Z,8.51
2023-05-13T01:38:48.388Z,8.50
2023-05-13T01:39:48.370Z,8.50
2023-05-13T01:40:48.392Z,8.50
2023-05-13T01:41:48.475Z,8.50
2023-05-13T01:42:48.378Z,8.49
2023-05-13T01:43:48.377Z,8.49
2023-05-13T01:44:48.422Z,8.49
2023-05-13T01:45:48.303Z,8.49
2023-05-13T01:46:48.377Z,8.48
2023-05-13T01:47:48.370Z,8.48
2023-05-13T01:48:48.339Z,8.48
2023-05-13T01:49:48.244Z,8.48
2023-05-13T01:50:48.245Z,8.47
2023-05-13T01:51:48.216Z,8.47
2023-05-13T01:52:48.193Z,8.47
2023-05-13T01:53:48.202Z,8.46
2023-05-13T01:54:48.181Z,8.46
2023-05-13T01:55:48.166Z,8.45
2023-05-13T01:56:48.187Z,8.45
2023-05-13T01:57:48.136Z,8.45
2023-05-13T01:58:48.115Z,8.45
2023-05-13T01:59:48.107Z,8.44
2023-05-13T02:00:48.087Z,8.44
2023-05-13T02:01:48.108Z,8.44
2023-05-13T02:02:48.145Z,8.43
2023-05-13T02:03:48.080Z,8.43
2023-05-13T02:04:48.033Z,8.43
2023-05-13T02:05:48.033Z,8.43
2023-05-13T02:06:48.009Z,8.42
2023-05-13T02:07:48.022Z,8.42
2023-05-13T02:08:48.009Z,8.41
2023-05-13T02:09:47.976Z,8.40
2023-05-13T02:10:47.962Z,8.40
2023-05-13T02:11:47.975Z,8.40
2023-05-13T02:12:47.950Z,8.39
2023-05-13T02:13:47.947Z,8.39
2023-05-13T02:14:47.916Z,8.39
2023-05-13T02:15:47.899Z,8.39
2023-05-13T02:16:47.932Z,8.38
2023-05-13T02:17:47.892Z,8.38
2023-05-13T02:18:47.962Z,8.38
2023-05-13T02:19:47.859Z,8.37
2023-05-13T02:20:47.842Z,8.35
2023-05-13T02:21:47.827Z,8.34
2023-05-13T02:22:47.811Z,8.34
2023-05-13T02:23:47.795Z,8.33
2023-05-13T02:24:47.824Z,8.33
2023-05-13T02:25:47.772Z,8.32
2023-05-13T02:26:47.784Z,8.32
2023-05-13T02:27:47.775Z,8.33
2023-05-13T02:28:47.735Z,8.33
2023-05-13T02:29:47.746Z,8.32
2023-05-13T02:30:47.709Z,8.32
2023-05-13T02:31:47.729Z,8.31
2023-05-13T02:32:47.754Z,8.30
2023-05-13T02:33:47.686Z,8.29
2023-05-13T02:34:47.659Z,8.29
2023-05-13T02:35:47.665Z,8.28
2023-05-13T02:36:47.662Z,8.27
2023-05-13T02:37:47.628Z,8.26
2023-05-13T02:38:47.612Z,8.26
2023-05-13T02:39:47.605Z,8.25
2023-05-13T02:40:47.583Z,8.25
2023-05-13T02:41:47.584Z,8.24
2023-05-13T02:42:47.568Z,8.22
2023-05-13T02:43:47.541Z,8.21
2023-05-13T02:44:47.530Z,8.20
2023-05-13T02:45:47.530Z,8.19
2023-05-13T02:46:47.503Z,8.18
2023-05-13T02:47:47.592Z,8.17
2023-05-13T02:48:47.482Z,8.17
2023-05-13T02:49:47.472Z,8.17
2023-05-13T02:50:47.464Z,8.16
2023-05-13T02:51:47.449Z,8.16
2023-05-13T02:52:47.435Z,8.15
2023-05-13T02:53:47.431Z,8.15
2023-05-13T02:54:47.439Z,8.14
2023-05-13T02:55:47.400Z,8.14
2023-05-13T02:56:47.365Z,8.13
2023-05-13T02:57:47.362Z,8.12
2023-05-13T02:58:47.376Z,8.11
2023-05-13T02:59:47.336Z,8.09
2023-05-13T03:00:47.322Z,8.08
2023-05-13T03:01:47.368Z,8.07
2023-05-13T03:02:47.358Z,8.04
2023-05-13T03:03:47.317Z,8.02
2023-05-13T03:04:47.312Z,8.00
2023-05-13T03:05:47.274Z,7.98
2023-05-13T03:06:47.244Z,7.97
2023-05-13T03:07:47.268Z,7.95
2023-05-13T03:08:47.218Z,7.93
2023-05-13T03:09:47.215Z,7.92
2023-05-13T03:10:47.229Z,7.91
2023-05-13T03:11:47.205Z,7.90
2023-05-13T03:12:47.177Z,7.88
2023-05-13T03:13:47.181Z,7.87
2023-05-13T03:14:47.151Z,7.86
2023-05-13T03:15:47.146Z,7.85
2023-05-13T03:16:47.141Z,7.85
2023-05-13T03:17:47.186Z,7.84
2023-05-13T03:18:47.143Z,7.84
2023-05-13T03:19:47.100Z,7.83
2023-05-13T03:20:47.073Z,7.83
2023-05-13T03:21:47.055Z,7.82
2023-05-13T03:22:47.084Z,7.82
2023-05-13T03:23:47.048Z,7.81
2023-05-13T03:24:47.017Z,7.81
2023-05-13T03:25:46.999Z,7.80
2023-05-13T03:26:47.006Z,7.79
2023-05-13T03:27:46.978Z,7.79
2023-05-13T03:28:46.987Z,7.78
2023-05-13T03:29:46.953Z,7.78
2023-05-13T03:30:46.966Z,7.77
2023-05-13T03:31:47.057Z,7.77
2023-05-13T03:32:46.955Z,7.77
2023-05-13T03:33:46.906Z,7.76
2023-05-13T03:34:46.917Z,7.76
2023-05-13T03:35:46.882Z,7.76
2023-05-13T03:36:46.891Z,7.76
2023-05-13T03:37:46.856Z,7.75
2023-05-13T03:38:46.853Z,7.75
2023-05-13T03:39:46.847Z,7.75
2023-05-13T03:40:46.816Z,7.75
2023-05-13T03:41:46.804Z,7.75
2023-05-13T03:42:46.787Z,7.76
2023-05-13T03:43:46.775Z,7.76
2023-05-13T03:44:46.754Z,7.76
2023-05-13T03:45:46.770Z,7.75
2023-05-13T03:46:46.758Z,7.75
2023-05-13T03:47:46.790Z,7.75
2023-05-13T03:48:46.716Z,7.75
2023-05-13T03:49:46.701Z,7.74
2023-05-13T03:50:46.700Z,7.74
2023-05-13T03:51:46.692Z,7.73
2023-05-13T03:52:47.298Z,7.71
2023-05-13T03:53:46.648Z,7.70
2023-05-13T03:54:46.652Z,7.70
2023-05-13T03:55:46.624Z,7.70
2023-05-13T03:56:46.619Z,7.70
2023-05-13T03:57:46.627Z,7.71
2023-05-13T03:58:46.592Z,7.71
2023-05-13T03:59:46.577Z,7.70
2023-05-13T04:00:46.794Z,7.70
2023-05-13T04:01:46.594Z,7.69
2023-05-13T04:02:46.631Z,7.69
2023-05-13T04:03:46.601Z,7.70
2023-05-13T04:04:46.608Z,7.70
2023-05-13T04:05:46.498Z,7.70
2023-05-13T04:06:46.497Z,7.69
2023-05-13T04:07:46.516Z,7.69
2023-05-13T04:08:46.456Z,7.68
2023-05-13T04:09:46.481Z,7.68
2023-05-13T04:10:46.442Z,7.68
2023-05-13T04:11:46.425Z,7.69
2023-05-13T04:12:46.417Z,7.70
2023-05-13T04:13:46.400Z,7.71
2023-05-13T04:14:46.384Z,7.73
2023-05-13T04:15:46.385Z,7.74
2023-05-13T04:16:46.364Z,7.74
2023-05-13T04:17:46.506Z,7.73
2023-05-13T04:18:46.406Z,7.73
2023-05-13T04:19:46.329Z,7.73
2023-05-13T04:20:46.317Z,7.73
2023-05-13T04:21:46.314Z,7.74
2023-05-13T04:22:46.293Z,7.74
2023-05-13T04:23:46.283Z,7.74
2023-05-13T04:24:46.258Z,7.75
2023-05-13T04:25:46.259Z,7.74
2023-05-13T04:26:46.232Z,7.75
2023-05-13T04:27:46.233Z,7.76
2023-05-13T04:28:46.206Z,7.77
2023-05-13T04:29:46.187Z,7.78
2023-05-13T04:30:46.172Z,7.78
2023-05-13T04:31:46.169Z,7.79
2023-05-13T04:32:46.199Z,7.80
2023-05-13T04:33:46.160Z,7.82
2023-05-13T04:34:46.118Z,7.84
2023-05-13T04:35:46.112Z,7.85
2023-05-13T04:36:46.114Z,7.85
2023-05-13T04:37:46.107Z,7.85
2023-05-13T04:38:46.081Z,7.84
2023-05-13T04:39:46.082Z,7.84
2023-05-13T04:40:46.051Z,7.84
2023-05-13T04:41:46.039Z,7.85
2023-05-13T04:42:46.035Z,7.85
2023-05-13T04:43:46.009Z,7.86
2023-05-13T04:44:46.044Z,7.88
2023-05-13T04:45:45.982Z,7.89
2023-05-13T04:46:46.082Z,7.89
2023-05-13T04:47:46.065Z,7.88
2023-05-13T04:48:45.942Z,7.87
2023-05-13T04:49:45.929Z,7.88
2023-05-13T04:50:45.954Z,7.89
2023-05-13T04:51:45.911Z,7.89
2023-05-13T04:52:45.895Z,7.90
2023-05-13T04:53:45.890Z,7.91
2023-05-13T04:54:45.891Z,7.92
2023-05-13T04:55:45.863Z,7.93
2023-05-13T04:56:45.859Z,7.94
2023-05-13T04:57:45.829Z,7.95
2023-05-13T04:58:45.822Z,7.96
2023-05-13T04:59:45.815Z,7.96
2023-05-13T05:00:45.791Z,7.94
2023-05-13T05:01:45.845Z,7.94
2023-05-13T05:02:45.805Z,7.94
2023-05-13T05:03:45.834Z,7.95
2023-05-13T05:04:45.754Z,7.97
2023-05-13T05:05:45.737Z,7.98
2023-05-13T05:06:45.765Z,8.00
2023-05-13T05:07:45.717Z,8.00
2023-05-13T05:08:45.696Z,7.99
2023-05-13T05:09:45.680Z,7.98
2023-05-13T05:10:45.667Z,7.98
2023-05-13T05:11:45.684Z,7.99
2023-05-13T05:12:45.642Z,7.99
2023-05-13T05:13:45.635Z,8.00
2023-05-13T05:14:45.621Z,8.01
2023-05-13T05:15:45.621Z,8.03
2023-05-13T05:16:45.589Z,8.05
2023-05-13T05:17:45.706Z,8.07
2023-05-13T05:18:45.656Z,8.09
2023-05-13T05:19:45.592Z,8.12
2023-05-13T05:20:45.594Z,8.13
2023-05-13T05:21:45.546Z,8.14
2023-05-13T05:22:45.512Z,8.15
2023-05-13T05:23:45.503Z,8.17
2023-05-13T05:24:45.491Z,8.17
2023-05-13T05:25:45.485Z,8.18
2023-05-13T05:26:45.517Z,8.17
2023-05-13T05:27:45.451Z,8.17
2023-05-13T05:28:45.436Z,8.17
2023-05-13T05:29:45.424Z,8.17
2023-05-13T05:30:45.430Z,8.17
2023-05-13T05:31:45.445Z,8.16
2023-05-13T05:32:45.444Z,8.17
2023-05-13T05:33:45.369Z,8.17
2023-05-13T05:34:45.359Z,8.18
2023-05-13T05:35:45.344Z,8.19
2023-05-13T05:36:45.343Z,8.20
2023-05-13T05:37:45.337Z,8.20
2023-05-13T05:38:45.318Z,8.21
2023-05-13T05:39:45.317Z,8.21
2023-05-13T05:40:45.284Z,8.21
2023-05-13T05:41:45.264Z,8.21
2023-05-13T05:42:45.280Z,8.21
2023-05-13T05:43:45.245Z,8.22
2023-05-13T05:44:45.238Z,8.22
2023-05-13T05:45:45.232Z,8.23
2023-05-13T05:46:45.449Z,8.26
2023-05-13T05:47:45.235Z,8.26
2023-05-13T05:48:45.193Z,8.25
2023-05-13T05:49:45.181Z,8.24
2023-05-13T05:50:45.165Z,8.25
2023-05-13T05:51:45.134Z,8.28
2023-05-13T05:52:45.125Z,8.31
2023-05-13T05:53:45.129Z,8.33
2023-05-13T05:54:45.122Z,8.36
2023-05-13T05:55:45.094Z,8.39
2023-05-13T05:56:45.067Z,8.41
2023-05-13T05:57:45.306Z,8.42
2023-05-13T05:58:45.056Z,8.42
2023-05-13T05:59:45.055Z,8.43
2023-05-13T06:00:45.037Z,8.44
2023-05-13T06:01:45.001Z,8.46
2023-05-13T06:02:45.052Z,8.50
2023-05-13T06:03:45.057Z,8.55
2023-05-13T06:04:45.077Z,8.56
2023-05-13T06:05:45.000Z,8.54
2023-05-13T06:06:45.016Z,8.55
2023-05-13T06:07:44.948Z,8.57
2023-05-13T06:08:44.937Z,8.58
2023-05-13T06:09:44.911Z,8.58
2023-05-13T06:10:44.913Z,8.60
2023-05-13T06:11:44.914Z,8.61
2023-05-13T06:12:44.868Z,8.61
2023-05-13T06:13:44.858Z,8.62
2023-05-13T06:14:44.850Z,8.63
2023-05-13T06:15:44.870Z,8.66
2023-05-13T06:16:44.876Z,8.70
2023-05-13T06:17:44.885Z,8.73
2023-05-13T06:18:44.864Z,8.73
2023-05-13T06:19:44.797Z,8.71
2023-05-13T06:20:44.787Z,8.70
2023-05-13T06:21:44.760Z,8.71
2023-05-13T06:22:44.797Z,8.72
2023-05-13T06:23:44.725Z,8.73
2023-05-13T06:24:44.721Z,8.76
2023-05-13T06:25:44.697Z,8.81
2023-05-13T06:26:44.708Z,8.84
2023-05-13T06:27:44.675Z,8.87
2023-05-13T06:28:44.688Z,8.92
2023-05-13T06:29:44.653Z,8.96
2023-05-13T06:30:44.643Z,8.95
2023-05-13T06:31:44.649Z,8.95
2023-05-13T06:32:53.510Z,8.98
2023-05-13T06:33:44.628Z,9.03
2023-05-13T06:34:44.600Z,9.07
2023-05-13T06:35:44.590Z,9.11
2023-05-13T06:36:44.567Z,9.17
2023-05-13T06:37:44.544Z,9.22
2023-05-13T06:38:44.531Z,9.23
2023-05-13T06:39:44.568Z,9.20
2023-05-13T06:40:44.537Z,9.19
2023-05-13T06:41:44.530Z,9.20
2023-05-13T06:42:44.481Z,9.21
2023-05-13T06:43:44.493Z,9.20
2023-05-13T06:44:44.471Z,9.14
2023-05-13T06:45:44.463Z,9.08
2023-05-13T06:46:44.504Z,9.06
2023-05-13T06:47:44.444Z,9.09
2023-05-13T06:48:44.431Z,9.11
2023-05-13T06:49:44.409Z,9.14
2023-05-13T06:50:44.384Z,9.20
2023-05-13T06:51:44.391Z,9.25
2023-05-13T06:52:44.349Z,9.27
2023-05-13T06:53:44.333Z,9.27
2023-05-13T06:54:44.335Z,9.21
2023-05-13T06:55:44.344Z,9.17
2023-05-13T06:56:44.323Z,9.14
2023-05-13T06:57:44.289Z,9.12
2023-05-13T06:58:44.274Z,9.07
2023-05-13T06:59:44.266Z,9.02
2023-05-13T07:00:44.279Z,9.00
2023-05-13T07:01:44.266Z,8.99
2023-05-13T07:02:44.291Z,8.98
2023-05-13T07:03:44.363Z,9.01
2023-05-13T07:04:44.195Z,9.05
2023-05-13T07:05:44.182Z,9.06
2023-05-13T07:06:44.173Z,9.04
2023-05-13T07:07:44.178Z,8.97
2023-05-13T07:08:44.159Z,8.88
2023-05-13T07:09:44.143Z,8.81
2023-05-13T07:10:44.130Z,8.79
2023-05-13T07:11:44.115Z,8.81
2023-05-13T07:12:44.094Z,8.84
2023-05-13T07:13:44.099Z,8.88
2023-05-13T07:14:44.086Z,8.90
2023-05-13T07:15:44.067Z,8.90
2023-05-13T07:16:44.087Z,8.90
2023-05-13T07:17:44.130Z,8.88
2023-05-13T07:18:44.088Z,8.87
2023-05-13T07:19:44.017Z,8.86
2023-05-13T07:20:43.999Z,8.85
2023-05-13T07:21:43.989Z,8.86
2023-05-13T07:22:43.972Z,8.86
2023-05-13T07:23:44.786Z,8.88
2023-05-13T07:24:43.958Z,8.90
2023-05-13T07:25:43.977Z,8.93
2023-05-13T07:26:43.906Z,8.94
2023-05-13T07:27:43.893Z,8.96
2023-05-13T07:28:43.887Z,9.01
2023-05-13T07:29:43.893Z,9.06
2023-05-13T07:30:43.868Z,9.09
2023-05-13T07:31:43.878Z,9.11
2023-05-13T07:32:43.914Z,9.12
2023-05-13T07:33:43.832Z,9.10
2023-05-13T07:34:43.813Z,9.07
2023-05-13T07:35:43.794Z,9.07
2023-05-13T07:36:43.787Z,9.09
2023-05-13T07:37:43.796Z,9.10
2023-05-13T07:38:43.760Z,9.13
2023-05-13T07:39:43.758Z,9.16
2023-05-13T07:40:43.727Z,9.18
2023-05-13T07:41:43.728Z,9.18
2023-05-13T07:42:43.710Z,9.14
2023-05-13T07:43:43.736Z,9.06
2023-05-13T07:44:43.686Z,8.97
2023-05-13T07:45:43.681Z,8.88
2023-05-13T07:46:43.696Z,8.82
2023-05-13T07:47:44.667Z,8.80
2023-05-13T07:48:43.643Z,8.81
2023-05-13T07:49:43.657Z,8.84
2023-05-13T07:50:43.613Z,8.89
2023-05-13T07:51:43.594Z,8.94
2023-05-13T07:52:43.572Z,8.97
2023-05-13T07:53:43.578Z,8.97
2023-05-13T07:54:43.576Z,8.97
2023-05-13T07:55:43.562Z,8.99
2023-05-13T07:56:43.543Z,9.02
2023-05-13T07:57:43.538Z,9.06
2023-05-13T07:58:43.521Z,9.10
2023-05-13T07:59:44.773Z,9.11
2023-05-13T08:00:43.523Z,9.13
2023-05-13T08:01:43.479Z,9.15
2023-05-13T08:02:43.533Z,9.16
2023-05-13T08:03:43.598Z,9.17
2023-05-13T08:04:43.473Z,9.17
2023-05-13T08:05:43.428Z,9.18
2023-05-13T08:06:43.420Z,9.20
2023-05-13T08:07:43.416Z,9.22
2023-05-13T08:08:43.382Z,9.25
2023-05-13T08:09:43.364Z,9.26
2023-05-13T08:10:43.364Z,9.24
2023-05-13T08:11:43.369Z,9.20
2023-05-13T08:12:43.342Z,9.21
2023-05-13T08:13:43.337Z,9.24
2023-05-13T08:14:43.335Z,9.24
2023-05-13T08:15:43.289Z,9.23
2023-05-13T08:16:43.309Z,9.24
2023-05-13T08:17:43.382Z,9.24
2023-05-13T08:18:43.285Z,9.24
2023-05-13T08:19:43.247Z,9.26
2023-05-13T08:20:43.252Z,9.25
2023-05-13T08:21:43.233Z,9.24
2023-05-13T08:22:43.231Z,9.23
2023-05-13T08:23:45.774Z,9.24
2023-05-13T08:24:43.325Z,9.22
2023-05-13T08:25:43.168Z,9.16
2023-05-13T08:26:43.161Z,9.13
2023-05-13T08:27:43.165Z,9.12
2023-05-13T08:28:43.134Z,9.13
2023-05-13T08:29:43.133Z,9.14
2023-05-13T08:30:43.099Z,9.15
2023-05-13T08:31:43.119Z,9.16
2023-05-13T08:32:43.081Z,9.13
2023-05-13T08:33:43.059Z,9.07
2023-05-13T08:34:43.045Z,9.04
2023-05-13T08:35:44.778Z,9.05
2023-05-13T08:36:43.027Z,9.07
2023-05-13T08:37:43.025Z,9.10
2023-05-13T08:38:43.004Z,9.15
2023-05-13T08:39:42.985Z,9.19
2023-05-13T08:40:42.997Z,9.22
2023-05-13T08:41:42.957Z,9.24
2023-05-13T08:42:42.942Z,9.24
2023-05-13T08:43:42.935Z,9.19
2023-05-13T08:44:42.916Z,9.12
2023-05-13T08:45:42.933Z,9.07
2023-05-13T08:46:42.911Z,9.06
2023-05-13T08:47:42.903Z,9.06
2023-05-13T08:48:42.874Z,9.09
2023-05-13T08:49:42.864Z,9.08
2023-05-13T08:50:42.854Z,9.04
2023-05-13T08:51:42.862Z,9.00
2023-05-13T08:52:42.844Z,8.97
2023-05-13T08:53:42.843Z,8.99
2023-05-13T08:54:42.802Z,9.04
2023-05-13T08:55:42.809Z,9.08
2023-05-13T08:56:42.767Z,9.12
2023-05-13T08:57:42.774Z,9.14
2023-05-13T08:58:42.767Z,9.10
2023-05-13T08:59:42.741Z,9.09
2023-05-13T09:00:42.736Z,9.12
2023-05-13T09:01:42.753Z,9.16
2023-05-13T09:02:42.742Z,9.19
2023-05-13T09:03:42.703Z,9.23
2023-05-13T09:04:42.745Z,9.28
2023-05-13T09:05:42.676Z,9.33
2023-05-13T09:06:42.642Z,9.39
2023-05-13T09:07:42.646Z,9.45
2023-05-13T09:08:42.633Z,9.51
2023-05-13T09:09:42.631Z,9.55
2023-05-13T09:10:42.592Z,9.54
2023-05-13T09:11:44.671Z,9.48
2023-05-13T09:12:42.571Z,9.42
2023-05-13T09:13:42.553Z,9.41
2023-05-13T09:14:42.570Z,9.46
2023-05-13T09:15:42.552Z,9.53
2023-05-13T09:16:42.538Z,9.61
2023-05-13T09:17:42.516Z,9.66
2023-05-13T09:18:42.673Z,9.68
2023-05-13T09:19:42.637Z,9.70
2023-05-13T09:20:42.484Z,9.71
2023-05-13T09:21:42.446Z,9.72
2023-05-13T09:22:42.454Z,9.73
2023-05-13T09:23:42.470Z,9.72
2023-05-13T09:24:42.430Z,9.72
2023-05-13T09:25:42.394Z,9.70
2023-05-13T09:26:42.430Z,9.68
2023-05-13T09:27:42.391Z,9.65
2023-05-13T09:28:42.361Z,9.63
2023-05-13T09:29:42.382Z,9.64
2023-05-13T09:30:45.596Z,9.67
2023-05-13T09:31:42.414Z,9.70
2023-05-13T09:32:42.374Z,9.72
2023-05-13T09:33:42.296Z,9.78
2023-05-13T09:34:42.303Z,9.84
2023-05-13T09:35:42.272Z,9.91
2023-05-13T09:36:42.270Z,9.98
2023-05-13T09:37:42.248Z,10.04
2023-05-13T09:38:42.247Z,10.08
2023-05-13T09:39:42.219Z,10.13
2023-05-13T09:40:42.206Z,10.19
2023-05-13T09:41:42.201Z,10.22
2023-05-13T09:42:42.170Z,10.22
2023-05-13T09:43:42.170Z,10.20
2023-05-13T09:44:42.183Z,10.15
2023-05-13T09:45:42.162Z,10.08
2023-05-13T09:46:42.161Z,10.04
2023-05-13T09:47:42.122Z,10.04
2023-05-13T09:48:42.118Z,10.04
2023-05-13T09:49:42.094Z,10.03
2023-05-13T09:50:42.097Z,10.01
2023-05-13T09:51:42.065Z,9.99
2023-05-13T09:52:42.049Z,9.97
2023-05-13T09:53:42.044Z,9.94
2023-05-13T09:54:42.028Z,9.92
2023-05-13T09:55:42.018Z,9.92
2023-05-13T09:56:42.024Z,9.91
2023-05-13T09:57:41.990Z,9.85
2023-05-13T09:58:42.014Z,9.78
2023-05-13T09:59:41.969Z,9.77
2023-05-13T10:00:42.362Z,9.83
2023-05-13T10:01:41.978Z,9.90
2023-05-13T10:02:41.966Z,9.98
2023-05-13T10:03:41.962Z,10.05
2023-05-13T10:04:41.906Z,10.12
2023-05-13T10:05:41.899Z,10.18
2023-05-13T10:06:41.917Z,10.22
2023-05-13T10:07:41.854Z,10.23
2023-05-13T10:08:41.889Z,10.23
2023-05-13T10:09:41.831Z,10.23
2023-05-13T10:10:41.860Z,10.24
2023-05-13T10:11:41.802Z,10.22
2023-05-13T10:12:41.787Z,10.15
2023-05-13T10:13:41.814Z,10.07
2023-05-13T10:14:41.773Z,10.01
2023-05-13T10:15:41.760Z,9.95
2023-05-13T10:16:41.796Z,9.91
2023-05-13T10:17:41.800Z,9.90
2023-05-13T10:18:41.808Z,9.94
2023-05-13T10:19:41.703Z,10.00
2023-05-13T10:20:41.713Z,10.05
2023-05-13T10:21:41.681Z,10.04
2023-05-13T10:22:41.685Z,10.00
2023-05-13T10:23:41.672Z,9.99
2023-05-13T10:24:41.646Z,10.00
2023-05-13T10:25:41.640Z,9.98
2023-05-13T10:26:41.626Z,9.95
2023-05-13T10:27:41.608Z,9.95
2023-05-13T10:28:41.633Z,9.99
2023-05-13T10:29:41.593Z,10.03
2023-05-13T10:30:41.560Z,10.10
2023-05-13T10:31:41.589Z,10.20
2023-05-13T10:32:41.591Z,10.29
2023-05-13T10:33:41.536Z,10.38
2023-05-13T10:34:41.517Z,10.46
2023-05-13T10:35:42.980Z,10.53
2023-05-13T10:36:41.495Z,10.59
2023-05-13T10:37:41.475Z,10.65
2023-05-13T10:38:41.478Z,10.71
2023-05-13T10:39:41.477Z,10.68
2023-05-13T10:40:41.442Z,10.54
2023-05-13T10:41:41.450Z,10.39
2023-05-13T10:42:41.402Z,10.31
2023-05-13T10:43:41.389Z,10.32
2023-05-13T10:44:41.385Z,10.40
2023-05-13T10:45:41.395Z,10.49
2023-05-13T10:46:41.382Z,10.54
2023-05-13T10:47:41.408Z,10.54
2023-05-13T10:48:41.361Z,10.59
2023-05-13T10:49:41.320Z,10.71
2023-05-13T10:50:41.311Z,10.84
2023-05-13T10:51:41.320Z,10.96
2023-05-13T10:52:41.320Z,11.10
2023-05-13T10:53:41.276Z,11.23
2023-05-13T10:54:41.256Z,11.29
2023-05-13T10:55:41.246Z,11.32
2023-05-13T10:56:41.226Z,11.34
2023-05-13T10:57:41.255Z,11.25
2023-05-13T10:58:41.197Z,11.12
2023-05-13T10:59:41.180Z,11.10
2023-05-13T11:00:41.196Z,11.15
2023-05-13T11:01:41.187Z,11.22
2023-05-13T11:02:41.193Z,11.27
2023-05-13T11:03:41.257Z,11.21
2023-05-13T11:04:41.126Z,11.12
2023-05-13T11:05:41.118Z,10.97
2023-05-13T11:06:41.174Z,10.84
2023-05-13T11:07:41.107Z,10.81
2023-05-13T11:08:41.074Z,10.80
2023-05-13T11:09:41.087Z,10.81
2023-05-13T11:10:41.051Z,10.85
2023-05-13T11:11:41.070Z,10.88
2023-05-13T11:12:41.034Z,10.89
2023-05-13T11:13:41.009Z,10.87
2023-05-13T11:14:40.997Z,10.90
2023-05-13T11:15:41.010Z,10.99
2023-05-13T11:16:41.070Z,11.00
2023-05-13T11:17:41.007Z,10.95
2023-05-13T11:18:40.996Z,10.85
2023-05-13T11:19:40.929Z,10.78
2023-05-13T11:20:51.732Z,10.78
2023-05-13T11:21:40.935Z,10.79
2023-05-13T11:22:40.913Z,10.78
2023-05-13T11:23:40.883Z,10.73
2023-05-13T11:24:40.926Z,10.69
2023-05-13T11:25:40.858Z,10.70
2023-05-13T11:26:40.853Z,10.73
2023-05-13T11:27:40.884Z,10.70
2023-05-13T11:28:40.839Z,10.69
2023-05-13T11:29:40.813Z,10.69
2023-05-13T11:30:40.819Z,10.68
2023-05-13T11:31:40.837Z,10.64
2023-05-13T11:32:40.825Z,10.59
2023-05-13T11:33:40.796Z,10.56
2023-05-13T11:34:40.742Z,10.54
2023-05-13T11:35:40.744Z,10.56
2023-05-13T11:36:40.726Z,10.61
2023-05-13T11:37:40.724Z,10.67
2023-05-13T11:38:40.693Z,10.73
2023-05-13T11:39:40.751Z,10.78
2023-05-13T11:40:40.665Z,10.80
2023-05-13T11:41:40.659Z,10.81
2023-05-13T11:42:40.657Z,10.77
2023-05-13T11:43:40.627Z,10.67
2023-05-13T11:44:40.630Z,10.61
2023-05-13T11:45:40.642Z,10.58
2023-05-13T11:46:40.600Z,10.55
2023-05-13T11:47:40.620Z,10.51
2023-05-13T11:48:40.591Z,10.46
2023-05-13T11:49:40.557Z,10.40
2023-05-13T11:50:40.548Z,10.36
2023-05-13T11:51:40.532Z,10.30
2023-05-13T11:52:40.525Z,10.21
2023-05-13T11:53:40.530Z,10.16
2023-05-13T11:54:40.505Z,10.15
2023-05-13T11:55:40.479Z,10.15
2023-05-13T11:56:40.463Z,10.17
2023-05-13T11:57:40.467Z,10.22
2023-05-13T11:58:40.434Z,10.24
2023-05-13T11:59:48.036Z,10.24
2023-05-13T12:00:40.417Z,10.26
2023-05-13T12:01:40.394Z,10.27
2023-05-13T12:02:40.835Z,10.31
2023-05-13T12:03:40.444Z,10.36
2023-05-13T12:04:40.370Z,10.40
2023-05-13T12:05:40.530Z,10.41
2023-05-13T12:06:40.360Z,10.41
2023-05-13T12:07:40.347Z,10.41
2023-05-13T12:08:40.324Z,10.36
2023-05-13T12:09:40.293Z,10.31
2023-05-13T12:10:40.297Z,10.26
2023-05-13T12:11:40.290Z,10.22
2023-05-13T12:12:40.294Z,10.18
2023-05-13T12:13:40.257Z,10.16
2023-05-13T12:14:40.249Z,10.12
2023-05-13T12:15:40.311Z,10.09
2023-05-13T12:16:40.221Z,10.13
2023-05-13T12:17:40.292Z,10.21
2023-05-13T12:18:40.196Z,10.28
2023-05-13T12:19:40.176Z,10.34
2023-05-13T12:20:40.167Z,10.37
2023-05-13T12:21:40.174Z,10.42
2023-05-13T12:22:40.154Z,10.45
2023-05-13T12:23:40.165Z,10.38
2023-05-13T12:24:40.103Z,10.32
2023-05-13T12:25:40.098Z,10.31
2023-05-13T12:26:40.100Z,10.36
2023-05-13T12:27:40.085Z,10.40
2023-05-13T12:28:40.097Z,10.46
2023-05-13T12:29:40.077Z,10.51
2023-05-13T12:30:40.046Z,10.50
2023-05-13T12:31:40.048Z,10.46
2023-05-13T12:32:40.061Z,10.42
2023-05-13T12:33:40.025Z,10.41
2023-05-13T12:34:40.003Z,10.39
2023-05-13T12:35:39.964Z,10.36
2023-05-13T12:36:40.017Z,10.33
2023-05-13T12:37:39.955Z,10.32
2023-05-13T12:38:39.941Z,10.31
2023-05-13T12:39:39.957Z,10.30
2023-05-13T12:40:39.903Z,10.31
2023-05-13T12:41:39.907Z,10.29
2023-05-13T12:42:39.880Z,10.23
2023-05-13T12:43:39.878Z,10.17
2023-05-13T12:44:39.858Z,10.12
2023-05-13T12:45:42.615Z,10.08
2023-05-13T12:46:39.896Z,10.08
2023-05-13T12:47:39.833Z,10.08
2023-05-13T12:48:39.805Z,10.07
2023-05-13T12:49:39.789Z,10.07
2023-05-13T12:50:39.800Z,10.10
2023-05-13T12:51:39.761Z,10.17
2023-05-13T12:52:39.773Z,10.29
2023-05-13T12:53:39.762Z,10.45
2023-05-13T12:54:40.732Z,10.58
2023-05-13T12:55:40.090Z,10.71
2023-05-13T12:56:39.725Z,10.81
2023-05-13T12:57:39.692Z,10.90
2023-05-13T12:58:39.681Z,10.99
2023-05-13T12:59:39.679Z,11.12
2023-05-13T13:00:39.691Z,11.28
2023-05-13T13:01:39.709Z,11.47
2023-05-13T13:02:39.885Z,11.58
2023-05-13T13:03:39.703Z,11.64
2023-05-13T13:04:39.608Z,11.66
2023-05-13T13:05:39.590Z,11.67
2023-05-13T13:06:39.566Z,11.71
2023-05-13T13:07:39.559Z,11.79
2023-05-13T13:08:39.617Z,11.88
2023-05-13T13:09:39.568Z,11.89
2023-05-13T13:10:39.535Z,11.94
2023-05-13T13:11:39.544Z,12.04